sensor_id;sensor_type;location;lat;lon;timestamp;pressure;altitude;pressure_sealevel;temperature
19666;BMP180;9980;51.020;7.772;2022-09-02T00:01:43;97795.00;;;16.20
19666;BMP180;9980;51.020;7.772;2022-09-02T00:04:16;97787.00;;;16.20
19666;BMP180;9980;51.020;7.772;2022-09-02T00:06:45;97790.00;;;16.20
19666;BMP180;9980;51.020;7.772;2022-09-02T00:09:15;97787.00;;;16.10
19666;BMP180;9980;51.020;7.772;2022-09-02T00:11:45;97785.00;;;16.10
19666;BMP180;9980;51.020;7.772;2022-09-02T00:14:23;97787.00;;;16.10
19666;BMP180;9980;51.020;7.772;2022-09-02T00:16:51;97790.00;;;16.10
19666;BMP180;9980;51.020;7.772;2022-09-02T00:19:22;97785.00;;;16.00
19666;BMP180;9980;51.020;7.772;2022-09-02T00:21:52;97784.00;;;16.00
19666;BMP180;9980;51.020;7.772;2022-09-02T00:24:21;97785.00;;;15.90
19666;BMP180;9980;51.020;7.772;2022-09-02T00:26:49;97776.00;;;15.90
19666;BMP180;9980;51.020;7.772;2022-09-02T00:29:16;97783.00;;;15.90
19666;BMP180;9980;51.020;7.772;2022-09-02T00:31:45;97783.00;;;15.80
19666;BMP180;9980;51.020;7.772;2022-09-02T00:34:13;97778.00;;;15.80
19666;BMP180;9980;51.020;7.772;2022-09-02T00:36:40;97777.00;;;15.80
19666;BMP180;9980;51.020;7.772;2022-09-02T00:39:08;97787.00;;;15.80
19666;BMP180;9980;51.020;7.772;2022-09-02T00:41:39;97772.00;;;15.80
19666;BMP180;9980;51.020;7.772;2022-09-02T00:44:12;97787.00;;;15.70
19666;BMP180;9980;51.020;7.772;2022-09-02T00:46:41;97780.00;;;15.70
19666;BMP180;9980;51.020;7.772;2022-09-02T00:49:18;97776.00;;;15.70
19666;BMP180;9980;51.020;7.772;2022-09-02T00:51:58;97779.00;;;15.70
19666;BMP180;9980;51.020;7.772;2022-09-02T00:54:29;97775.00;;;15.70
19666;BMP180;9980;51.020;7.772;2022-09-02T00:56:57;97758.00;;;15.60
19666;BMP180;9980;51.020;7.772;2022-09-02T00:59:56;97760.00;;;15.60
19666;BMP180;9980;51.020;7.772;2022-09-02T01:02:25;97757.00;;;15.60
19666;BMP180;9980;51.020;7.772;2022-09-02T01:04:54;97755.00;;;15.60
19666;BMP180;9980;51.020;7.772;2022-09-02T01:07:26;97755.00;;;15.60
19666;BMP180;9980;51.020;7.772;2022-09-02T01:09:55;97758.00;;;15.60
19666;BMP180;9980;51.020;7.772;2022-09-02T01:12:23;97756.00;;;15.60
19666;BMP180;9980;51.020;7.772;2022-09-02T01:14:52;97746.00;;;15.60
19666;BMP180;9980;51.020;7.772;2022-09-02T01:17:19;97751.00;;;15.60
19666;BMP180;9980;51.020;7.772;2022-09-02T01:19:52;97742.00;;;15.60
19666;BMP180;9980;51.020;7.772;2022-09-02T01:22:26;97753.00;;;15.60
19666;BMP180;9980;51.020;7.772;2022-09-02T01:24:58;97742.00;;;15.60
19666;BMP180;9980;51.020;7.772;2022-09-02T01:27:27;97747.00;;;15.60
19666;BMP180;9980;51.020;7.772;2022-09-02T01:29:57;97745.00;;;15.60
19666;BMP180;9980;51.020;7.772;2022-09-02T01:32:28;97738.00;;;15.60
19666;BMP180;9980;51.020;7.772;2022-09-02T01:34:55;97740.00;;;15.60
19666;BMP180;9980;51.020;7.772;2022-09-02T01:37:25;97745.00;;;15.60
19666;BMP180;9980;51.020;7.772;2022-09-02T01:39:53;97729.00;;;15.60
19666;BMP180;9980;51.020;7.772;2022-09-02T01:42:20;97741.00;;;15.60
19666;BMP180;9980;51.020;7.772;2022-09-02T01:44:47;97729.00;;;15.60
19666;BMP180;9980;51.020;7.772;2022-09-02T01:47:19;97741.00;;;15.60
19666;BMP180;9980;51.020;7.772;2022-09-02T01:49:47;97726.00;;;15.60
19666;BMP180;9980;51.020;7.772;2022-09-02T01:52:16;97734.00;;;15.60
19666;BMP180;9980;51.020;7.772;2022-09-02T01:54:44;97722.00;;;15.60
19666;BMP180;9980;51.020;7.772;2022-09-02T01:57:12;97737.00;;;15.60
19666;BMP180;9980;51.020;7.772;2022-09-02T01:59:41;97719.00;;;15.60
19666;BMP180;9980;51.020;7.772;2022-09-02T02:02:12;97724.00;;;15.60
19666;BMP180;9980;51.020;7.772;2022-09-02T02:04:40;97713.00;;;15.60
19666;BMP180;9980;51.020;7.772;2022-09-02T02:07:07;97717.00;;;15.60
19666;BMP180;9980;51.020;7.772;2022-09-02T02:09:34;97717.00;;;15.60
19666;BMP180;9980;51.020;7.772;2022-09-02T02:12:03;97716.00;;;15.50
19666;BMP180;9980;51.020;7.772;2022-09-02T02:14:30;97715.00;;;15.50
19666;BMP180;9980;51.020;7.772;2022-09-02T02:16:58;97709.00;;;15.50
19666;BMP180;9980;51.020;7.772;2022-09-02T02:19:26;97712.00;;;15.50
19666;BMP180;9980;51.020;7.772;2022-09-02T02:21:53;97722.00;;;15.50
19666;BMP180;9980;51.020;7.772;2022-09-02T02:24:20;97710.00;;;15.50
19666;BMP180;9980;51.020;7.772;2022-09-02T02:26:47;97714.00;;;15.50
19666;BMP180;9980;51.020;7.772;2022-09-02T02:29:17;97722.00;;;15.50
19666;BMP180;9980;51.020;7.772;2022-09-02T02:31:44;97708.00;;;15.50
19666;BMP180;9980;51.020;7.772;2022-09-02T02:34:12;97701.00;;;15.50
19666;BMP180;9980;51.020;7.772;2022-09-02T02:36:40;97705.00;;;15.50
19666;BMP180;9980;51.020;7.772;2022-09-02T02:39:09;97718.00;;;15.50
19666;BMP180;9980;51.020;7.772;2022-09-02T02:41:39;97719.00;;;15.50
19666;BMP180;9980;51.020;7.772;2022-09-02T02:44:11;97711.00;;;15.50
19666;BMP180;9980;51.020;7.772;2022-09-02T02:46:38;97711.00;;;15.50
19666;BMP180;9980;51.020;7.772;2022-09-02T02:49:06;97706.00;;;15.50
19666;BMP180;9980;51.020;7.772;2022-09-02T02:51:34;97704.00;;;15.50
19666;BMP180;9980;51.020;7.772;2022-09-02T02:54:03;97714.00;;;15.50
19666;BMP180;9980;51.020;7.772;2022-09-02T02:56:31;97699.00;;;15.50
19666;BMP180;9980;51.020;7.772;2022-09-02T02:58:59;97699.00;;;15.50
19666;BMP180;9980;51.020;7.772;2022-09-02T03:01:30;97701.00;;;15.50
19666;BMP180;9980;51.020;7.772;2022-09-02T03:03:58;97697.00;;;15.50
19666;BMP180;9980;51.020;7.772;2022-09-02T03:06:26;97702.00;;;15.50
19666;BMP180;9980;51.020;7.772;2022-09-02T03:08:54;97697.00;;;15.50
19666;BMP180;9980;51.020;7.772;2022-09-02T03:11:23;97697.00;;;15.40
19666;BMP180;9980;51.020;7.772;2022-09-02T03:13:55;97701.00;;;15.40
19666;BMP180;9980;51.020;7.772;2022-09-02T03:16:22;97702.00;;;15.40
19666;BMP180;9980;51.020;7.772;2022-09-02T03:18:50;97699.00;;;15.40
19666;BMP180;9980;51.020;7.772;2022-09-02T03:21:17;97700.00;;;15.40
19666;BMP180;9980;51.020;7.772;2022-09-02T03:23:46;97700.00;;;15.40
19666;BMP180;9980;51.020;7.772;2022-09-02T03:26:22;97700.00;;;15.40
19666;BMP180;9980;51.020;7.772;2022-09-02T03:28:53;97704.00;;;15.40
19666;BMP180;9980;51.020;7.772;2022-09-02T03:31:25;97699.00;;;15.40
19666;BMP180;9980;51.020;7.772;2022-09-02T03:33:54;97702.00;;;15.40
19666;BMP180;9980;51.020;7.772;2022-09-02T03:36:36;97690.00;;;15.30
19666;BMP180;9980;51.020;7.772;2022-09-02T03:39:09;97687.00;;;15.40
19666;BMP180;9980;51.020;7.772;2022-09-02T03:41:40;97694.00;;;15.40
19666;BMP180;9980;51.020;7.772;2022-09-02T03:44:09;97687.00;;;15.30
19666;BMP180;9980;51.020;7.772;2022-09-02T03:46:40;97693.00;;;15.30
19666;BMP180;9980;51.020;7.772;2022-09-02T03:49:07;97682.00;;;15.30
19666;BMP180;9980;51.020;7.772;2022-09-02T03:51:40;97686.00;;;15.30
19666;BMP180;9980;51.020;7.772;2022-09-02T03:54:09;97680.00;;;15.20
19666;BMP180;9980;51.020;7.772;2022-09-02T03:56:38;97692.00;;;15.20
19666;BMP180;9980;51.020;7.772;2022-09-02T03:59:06;97683.00;;;15.20
19666;BMP180;9980;51.020;7.772;2022-09-02T04:01:33;97680.00;;;15.20
19666;BMP180;9980;51.020;7.772;2022-09-02T04:04:05;97686.00;;;15.10
19666;BMP180;9980;51.020;7.772;2022-09-02T04:06:35;97673.00;;;15.20
19666;BMP180;9980;51.020;7.772;2022-09-02T04:09:03;97679.00;;;15.10
19666;BMP180;9980;51.020;7.772;2022-09-02T04:11:32;97674.00;;;15.10
19666;BMP180;9980;51.020;7.772;2022-09-02T04:13:59;97685.00;;;15.10
19666;BMP180;9980;51.020;7.772;2022-09-02T04:16:27;97680.00;;;15.00
19666;BMP180;9980;51.020;7.772;2022-09-02T04:19:00;97674.00;;;15.00
19666;BMP180;9980;51.020;7.772;2022-09-02T04:21:32;97689.00;;;15.00
19666;BMP180;9980;51.020;7.772;2022-09-02T04:23:59;97681.00;;;14.90
19666;BMP180;9980;51.020;7.772;2022-09-02T04:26:27;97679.00;;;14.90
19666;BMP180;9980;51.020;7.772;2022-09-02T04:28:56;97686.00;;;14.90
19666;BMP180;9980;51.020;7.772;2022-09-02T04:31:26;97674.00;;;14.80
19666;BMP180;9980;51.020;7.772;2022-09-02T04:33:58;97689.00;;;14.80
19666;BMP180;9980;51.020;7.772;2022-09-02T04:36:28;97674.00;;;14.80
19666;BMP180;9980;51.020;7.772;2022-09-02T04:39:00;97666.00;;;14.80
19666;BMP180;9980;51.020;7.772;2022-09-02T04:41:31;97690.00;;;14.70
19666;BMP180;9980;51.020;7.772;2022-09-02T04:44:02;97674.00;;;14.70
19666;BMP180;9980;51.020;7.772;2022-09-02T04:46:35;97675.00;;;14.70
19666;BMP180;9980;51.020;7.772;2022-09-02T04:49:07;97678.00;;;14.70
19666;BMP180;9980;51.020;7.772;2022-09-02T04:51:36;97680.00;;;14.70
19666;BMP180;9980;51.020;7.772;2022-09-02T04:54:05;97672.00;;;14.70
19666;BMP180;9980;51.020;7.772;2022-09-02T04:56:34;97678.00;;;14.70
19666;BMP180;9980;51.020;7.772;2022-09-02T04:59:03;97688.00;;;14.70
19666;BMP180;9980;51.020;7.772;2022-09-02T05:01:34;97683.00;;;14.60
19666;BMP180;9980;51.020;7.772;2022-09-02T05:04:08;97681.00;;;14.70
19666;BMP180;9980;51.020;7.772;2022-09-02T05:06:40;97691.00;;;14.70
19666;BMP180;9980;51.020;7.772;2022-09-02T05:09:14;97690.00;;;14.70
19666;BMP180;9980;51.020;7.772;2022-09-02T05:11:43;97690.00;;;14.70
19666;BMP180;9980;51.020;7.772;2022-09-02T05:14:10;97688.00;;;14.70
19666;BMP180;9980;51.020;7.772;2022-09-02T05:16:39;97678.00;;;14.70
19666;BMP180;9980;51.020;7.772;2022-09-02T05:19:11;97676.00;;;14.70
19666;BMP180;9980;51.020;7.772;2022-09-02T05:21:45;97683.00;;;14.80
19666;BMP180;9980;51.020;7.772;2022-09-02T05:24:21;97678.00;;;14.80
19666;BMP180;9980;51.020;7.772;2022-09-02T05:26:53;97687.00;;;14.80
19666;BMP180;9980;51.020;7.772;2022-09-02T05:29:21;97683.00;;;14.80
19666;BMP180;9980;51.020;7.772;2022-09-02T05:31:50;97679.00;;;14.80
19666;BMP180;9980;51.020;7.772;2022-09-02T05:34:19;97700.00;;;14.90
19666;BMP180;9980;51.020;7.772;2022-09-02T05:36:50;97663.00;;;14.90
19666;BMP180;9980;51.020;7.772;2022-09-02T05:39:18;97674.00;;;14.90
19666;BMP180;9980;51.020;7.772;2022-09-02T05:41:46;97677.00;;;15.00
19666;BMP180;9980;51.020;7.772;2022-09-02T05:44:13;97675.00;;;15.00
19666;BMP180;9980;51.020;7.772;2022-09-02T05:46:40;97681.00;;;15.10
19666;BMP180;9980;51.020;7.772;2022-09-02T05:49:12;97686.00;;;15.10
19666;BMP180;9980;51.020;7.772;2022-09-02T05:51:58;97675.00;;;15.20
19666;BMP180;9980;51.020;7.772;2022-09-02T05:54:33;97668.00;;;15.20
19666;BMP180;9980;51.020;7.772;2022-09-02T05:57:08;97671.00;;;15.30
19666;BMP180;9980;51.020;7.772;2022-09-02T05:59:42;97671.00;;;15.30
19666;BMP180;9980;51.020;7.772;2022-09-02T06:02:16;97672.00;;;15.40
19666;BMP180;9980;51.020;7.772;2022-09-02T06:04:47;97683.00;;;15.50
19666;BMP180;9980;51.020;7.772;2022-09-02T06:07:18;97675.00;;;15.60
19666;BMP180;9980;51.020;7.772;2022-09-02T06:09:48;97683.00;;;15.60
19666;BMP180;9980;51.020;7.772;2022-09-02T06:12:18;97679.00;;;15.70
19666;BMP180;9980;51.020;7.772;2022-09-02T06:14:47;97669.00;;;15.80
19666;BMP180;9980;51.020;7.772;2022-09-02T06:17:16;97674.00;;;15.90
19666;BMP180;9980;51.020;7.772;2022-09-02T06:19:47;97678.00;;;16.00
19666;BMP180;9980;51.020;7.772;2022-09-02T06:22:20;97676.00;;;16.10
19666;BMP180;9980;51.020;7.772;2022-09-02T06:24:47;97677.00;;;16.20
19666;BMP180;9980;51.020;7.772;2022-09-02T06:27:20;97674.00;;;16.30
19666;BMP180;9980;51.020;7.772;2022-09-02T06:29:51;97680.00;;;16.30
19666;BMP180;9980;51.020;7.772;2022-09-02T06:32:20;97664.00;;;16.40
19666;BMP180;9980;51.020;7.772;2022-09-02T06:34:51;97683.00;;;16.50
19666;BMP180;9980;51.020;7.772;2022-09-02T06:37:18;97680.00;;;16.60
19666;BMP180;9980;51.020;7.772;2022-09-02T06:39:45;97666.00;;;16.70
19666;BMP180;9980;51.020;7.772;2022-09-02T06:42:17;97678.00;;;16.80
19666;BMP180;9980;51.020;7.772;2022-09-02T06:45:01;97666.00;;;16.80
19666;BMP180;9980;51.020;7.772;2022-09-02T06:47:29;97663.00;;;16.90
19666;BMP180;9980;51.020;7.772;2022-09-02T06:49:58;97687.00;;;17.00
19666;BMP180;9980;51.020;7.772;2022-09-02T06:52:26;97675.00;;;17.10
19666;BMP180;9980;51.020;7.772;2022-09-02T06:54:53;97670.00;;;17.20
19666;BMP180;9980;51.020;7.772;2022-09-02T06:57:21;97676.00;;;17.30
19666;BMP180;9980;51.020;7.772;2022-09-02T07:00:04;97672.00;;;17.40
19666;BMP180;9980;51.020;7.772;2022-09-02T07:02:33;97682.00;;;17.50
19666;BMP180;9980;51.020;7.772;2022-09-02T07:05:00;97676.00;;;17.60
19666;BMP180;9980;51.020;7.772;2022-09-02T07:07:40;97680.00;;;17.70
19666;BMP180;9980;51.020;7.772;2022-09-02T07:10:13;97673.00;;;17.80
19666;BMP180;9980;51.020;7.772;2022-09-02T07:12:43;97676.00;;;18.00
19666;BMP180;9980;51.020;7.772;2022-09-02T07:15:14;97660.00;;;18.10
19666;BMP180;9980;51.020;7.772;2022-09-02T07:17:43;97672.00;;;18.30
19666;BMP180;9980;51.020;7.772;2022-09-02T07:20:15;97673.00;;;18.40
19666;BMP180;9980;51.020;7.772;2022-09-02T07:22:48;97662.00;;;18.60
19666;BMP180;9980;51.020;7.772;2022-09-02T07:25:21;97668.00;;;18.80
19666;BMP180;9980;51.020;7.772;2022-09-02T07:27:49;97678.00;;;19.00
19666;BMP180;9980;51.020;7.772;2022-09-02T07:30:18;97666.00;;;19.20
19666;BMP180;9980;51.020;7.772;2022-09-02T07:32:47;97667.00;;;19.30
19666;BMP180;9980;51.020;7.772;2022-09-02T07:35:18;97654.00;;;19.50
19666;BMP180;9980;51.020;7.772;2022-09-02T07:37:45;97658.00;;;19.70
19666;BMP180;9980;51.020;7.772;2022-09-02T07:40:12;97661.00;;;19.80
19666;BMP180;9980;51.020;7.772;2022-09-02T07:42:42;97646.00;;;19.90
19666;BMP180;9980;51.020;7.772;2022-09-02T07:45:12;97652.00;;;20.10
19666;BMP180;9980;51.020;7.772;2022-09-02T07:47:41;97647.00;;;20.20
19666;BMP180;9980;51.020;7.772;2022-09-02T07:50:09;97651.00;;;20.40
19666;BMP180;9980;51.020;7.772;2022-09-02T07:52:57;97651.00;;;20.50
19666;BMP180;9980;51.020;7.772;2022-09-02T07:55:27;97655.00;;;20.60
19666;BMP180;9980;51.020;7.772;2022-09-02T07:57:57;97638.00;;;20.80
19666;BMP180;9980;51.020;7.772;2022-09-02T08:00:24;97647.00;;;20.90
19666;BMP180;9980;51.020;7.772;2022-09-02T08:02:55;97637.00;;;21.00
19666;BMP180;9980;51.020;7.772;2022-09-02T08:05:30;97648.00;;;21.20
19666;BMP180;9980;51.020;7.772;2022-09-02T08:07:58;97661.00;;;21.30
19666;BMP180;9980;51.020;7.772;2022-09-02T08:10:27;97656.00;;;21.50
19666;BMP180;9980;51.020;7.772;2022-09-02T08:12:59;97655.00;;;21.60
19666;BMP180;9980;51.020;7.772;2022-09-02T08:15:34;97672.00;;;21.70
19666;BMP180;9980;51.020;7.772;2022-09-02T08:18:03;97656.00;;;21.80
19666;BMP180;9980;51.020;7.772;2022-09-02T08:20:30;97656.00;;;21.90
19666;BMP180;9980;51.020;7.772;2022-09-02T08:22:57;97656.00;;;22.00
19666;BMP180;9980;51.020;7.772;2022-09-02T08:25:38;97637.00;;;22.10
19666;BMP180;9980;51.020;7.772;2022-09-02T08:28:06;97654.00;;;22.20
19666;BMP180;9980;51.020;7.772;2022-09-02T08:30:34;97657.00;;;22.30
19666;BMP180;9980;51.020;7.772;2022-09-02T08:33:01;97644.00;;;22.40
19666;BMP180;9980;51.020;7.772;2022-09-02T08:35:28;97645.00;;;22.60
19666;BMP180;9980;51.020;7.772;2022-09-02T08:37:58;97642.00;;;22.70
19666;BMP180;9980;51.020;7.772;2022-09-02T08:40:38;97649.00;;;22.90
19666;BMP180;9980;51.020;7.772;2022-09-02T08:43:35;97651.00;;;23.00
19666;BMP180;9980;51.020;7.772;2022-09-02T08:46:09;97650.00;;;23.10
19666;BMP180;9980;51.020;7.772;2022-09-02T08:48:51;97646.00;;;23.20
19666;BMP180;9980;51.020;7.772;2022-09-02T08:51:32;97642.00;;;23.30
19666;BMP180;9980;51.020;7.772;2022-09-02T08:56:55;97628.00;;;23.50
19666;BMP180;9980;51.020;7.772;2022-09-02T08:59:24;97648.00;;;23.70
19666;BMP180;9980;51.020;7.772;2022-09-02T09:02:20;97636.00;;;23.80
19666;BMP180;9980;51.020;7.772;2022-09-02T09:08:36;97633.00;;;24.10
19666;BMP180;9980;51.020;7.772;2022-09-02T09:11:23;97623.00;;;24.20
19666;BMP180;9980;51.020;7.772;2022-09-02T09:14:42;97624.00;;;24.40
19666;BMP180;9980;51.020;7.772;2022-09-02T09:17:34;97611.00;;;24.60
19666;BMP180;9980;51.020;7.772;2022-09-02T09:20:13;97618.00;;;24.70
19666;BMP180;9980;51.020;7.772;2022-09-02T09:22:42;97608.00;;;24.90
19666;BMP180;9980;51.020;7.772;2022-09-02T09:25:14;97601.00;;;25.10
19666;BMP180;9980;51.020;7.772;2022-09-02T09:27:42;97619.00;;;25.20
19666;BMP180;9980;51.020;7.772;2022-09-02T09:30:13;97632.00;;;25.40
19666;BMP180;9980;51.020;7.772;2022-09-02T09:32:57;97615.00;;;25.60
19666;BMP180;9980;51.020;7.772;2022-09-02T09:35:46;97609.00;;;25.70
19666;BMP180;9980;51.020;7.772;2022-09-02T09:38:32;97608.00;;;25.90
19666;BMP180;9980;51.020;7.772;2022-09-02T09:41:22;97609.00;;;26.00
19666;BMP180;9980;51.020;7.772;2022-09-02T09:43:50;97620.00;;;26.10
19666;BMP180;9980;51.020;7.772;2022-09-02T09:46:30;97620.00;;;26.10
19666;BMP180;9980;51.020;7.772;2022-09-02T09:48:59;97602.00;;;26.20
19666;BMP180;9980;51.020;7.772;2022-09-02T09:51:26;97613.00;;;26.30
19666;BMP180;9980;51.020;7.772;2022-09-02T09:54:14;97604.00;;;26.20
19666;BMP180;9980;51.020;7.772;2022-09-02T09:56:41;97605.00;;;26.40
19666;BMP180;9980;51.020;7.772;2022-09-02T09:59:40;97605.00;;;26.40
19666;BMP180;9980;51.020;7.772;2022-09-02T10:02:22;97601.00;;;26.50
19666;BMP180;9980;51.020;7.772;2022-09-02T10:04:54;97599.00;;;26.50
19666;BMP180;9980;51.020;7.772;2022-09-02T10:07:41;97601.00;;;26.50
19666;BMP180;9980;51.020;7.772;2022-09-02T10:10:16;97609.00;;;26.70
19666;BMP180;9980;51.020;7.772;2022-09-02T10:12:46;97591.00;;;26.80
19666;BMP180;9980;51.020;7.772;2022-09-02T10:15:13;97572.00;;;26.80
19666;BMP180;9980;51.020;7.772;2022-09-02T10:17:59;97590.00;;;26.80
19666;BMP180;9980;51.020;7.772;2022-09-02T10:20:55;97580.00;;;26.90
19666;BMP180;9980;51.020;7.772;2022-09-02T10:26:53;97579.00;;;27.10
19666;BMP180;9980;51.020;7.772;2022-09-02T10:29:48;97595.00;;;27.20
19666;BMP180;9980;51.020;7.772;2022-09-02T10:32:29;97581.00;;;27.30
19666;BMP180;9980;51.020;7.772;2022-09-02T10:38:40;97571.00;;;27.40
19666;BMP180;9980;51.020;7.772;2022-09-02T10:41:36;97568.00;;;27.40
19666;BMP180;9980;51.020;7.772;2022-09-02T10:47:39;97559.00;;;27.50
19666;BMP180;9980;51.020;7.772;2022-09-02T10:50:17;97577.00;;;27.50
19666;BMP180;9980;51.020;7.772;2022-09-02T10:55:58;97568.00;;;27.50
19666;BMP180;9980;51.020;7.772;2022-09-02T10:58:35;97566.00;;;27.60
19666;BMP180;9980;51.020;7.772;2022-09-02T11:01:07;97562.00;;;27.60
19666;BMP180;9980;51.020;7.772;2022-09-02T11:04:01;97556.00;;;27.50
19666;BMP180;9980;51.020;7.772;2022-09-02T11:06:41;97555.00;;;27.60
19666;BMP180;9980;51.020;7.772;2022-09-02T11:09:45;97552.00;;;27.60
19666;BMP180;9980;51.020;7.772;2022-09-02T11:12:32;97549.00;;;27.60
19666;BMP180;9980;51.020;7.772;2022-09-02T11:15:31;97549.00;;;27.60
19666;BMP180;9980;51.020;7.772;2022-09-02T11:18:27;97539.00;;;27.70
19666;BMP180;9980;51.020;7.772;2022-09-02T11:21:15;97529.00;;;27.80
19666;BMP180;9980;51.020;7.772;2022-09-02T11:24:08;97541.00;;;27.90
19666;BMP180;9980;51.020;7.772;2022-09-02T11:26:45;97549.00;;;28.00
19666;BMP180;9980;51.020;7.772;2022-09-02T11:32:39;97540.00;;;28.10
19666;BMP180;9980;51.020;7.772;2022-09-02T11:35:17;97539.00;;;28.10
19666;BMP180;9980;51.020;7.772;2022-09-02T11:37:58;97528.00;;;28.10
19666;BMP180;9980;51.020;7.772;2022-09-02T11:43:55;97528.00;;;28.10
19666;BMP180;9980;51.020;7.772;2022-09-02T11:50:03;97535.00;;;28.20
19666;BMP180;9980;51.020;7.772;2022-09-02T11:55:41;97519.00;;;28.20
19666;BMP180;9980;51.020;7.772;2022-09-02T11:58:31;97522.00;;;28.20
19666;BMP180;9980;51.020;7.772;2022-09-02T12:03:48;97526.00;;;28.20
19666;BMP180;9980;51.020;7.772;2022-09-02T12:09:48;97517.00;;;28.10
19666;BMP180;9980;51.020;7.772;2022-09-02T12:20:09;97523.00;;;28.10
19666;BMP180;9980;51.020;7.772;2022-09-02T12:22:39;97492.00;;;28.10
19666;BMP180;9980;51.020;7.772;2022-09-02T12:25:32;97512.00;;;28.10
19666;BMP180;9980;51.020;7.772;2022-09-02T12:28:26;97512.00;;;28.10
19666;BMP180;9980;51.020;7.772;2022-09-02T12:33:37;97498.00;;;28.40
19666;BMP180;9980;51.020;7.772;2022-09-02T12:36:07;97493.00;;;28.50
19666;BMP180;9980;51.020;7.772;2022-09-02T12:38:40;97497.00;;;28.50
19666;BMP180;9980;51.020;7.772;2022-09-02T12:41:24;97487.00;;;28.50
19666;BMP180;9980;51.020;7.772;2022-09-02T12:50:06;97487.00;;;28.60
19666;BMP180;9980;51.020;7.772;2022-09-02T12:55:25;97489.00;;;28.60
19666;BMP180;9980;51.020;7.772;2022-09-02T12:58:13;97515.00;;;28.50
19666;BMP180;9980;51.020;7.772;2022-09-02T13:01:47;97489.00;;;28.40
19666;BMP180;9980;51.020;7.772;2022-09-02T13:13:33;97487.00;;;28.50
19666;BMP180;9980;51.020;7.772;2022-09-02T13:16:36;97483.00;;;28.50
19666;BMP180;9980;51.020;7.772;2022-09-02T13:26:03;97485.00;;;28.40
19666;BMP180;9980;51.020;7.772;2022-09-02T13:29:14;97475.00;;;28.40
19666;BMP180;9980;51.020;7.772;2022-09-02T13:32:00;97477.00;;;28.40
19666;BMP180;9980;51.020;7.772;2022-09-02T13:34:30;97478.00;;;28.40
19666;BMP180;9980;51.020;7.772;2022-09-02T13:36:58;97463.00;;;28.40
19666;BMP180;9980;51.020;7.772;2022-09-02T13:39:27;97472.00;;;28.40
19666;BMP180;9980;51.020;7.772;2022-09-02T13:41:54;97485.00;;;28.40
19666;BMP180;9980;51.020;7.772;2022-09-02T13:44:25;97473.00;;;28.40
19666;BMP180;9980;51.020;7.772;2022-09-02T13:47:03;97464.00;;;28.40
19666;BMP180;9980;51.020;7.772;2022-09-02T13:49:35;97469.00;;;28.50
19666;BMP180;9980;51.020;7.772;2022-09-02T13:52:11;97461.00;;;28.40
19666;BMP180;9980;51.020;7.772;2022-09-02T13:54:52;97452.00;;;28.40
19666;BMP180;9980;51.020;7.772;2022-09-02T13:57:25;97446.00;;;28.40
19666;BMP180;9980;51.020;7.772;2022-09-02T13:59:55;97445.00;;;28.40
19666;BMP180;9980;51.020;7.772;2022-09-02T14:02:30;97459.00;;;28.30
19666;BMP180;9980;51.020;7.772;2022-09-02T14:05:09;97438.00;;;28.30
19666;BMP180;9980;51.020;7.772;2022-09-02T14:07:46;97445.00;;;28.20
19666;BMP180;9980;51.020;7.772;2022-09-02T14:10:20;97425.00;;;28.20
19666;BMP180;9980;51.020;7.772;2022-09-02T14:12:48;97426.00;;;28.20
19666;BMP180;9980;51.020;7.772;2022-09-02T14:15:25;97428.00;;;28.10
19666;BMP180;9980;51.020;7.772;2022-09-02T14:18:25;97428.00;;;28.00
19666;BMP180;9980;51.020;7.772;2022-09-02T14:21:15;97408.00;;;28.10
19666;BMP180;9980;51.020;7.772;2022-09-02T14:23:50;97413.00;;;28.10
19666;BMP180;9980;51.020;7.772;2022-09-02T14:26:33;97416.00;;;28.10
19666;BMP180;9980;51.020;7.772;2022-09-02T14:29:04;97404.00;;;28.20
19666;BMP180;9980;51.020;7.772;2022-09-02T14:31:31;97405.00;;;28.30
19666;BMP180;9980;51.020;7.772;2022-09-02T14:34:00;97386.00;;;28.30
19666;BMP180;9980;51.020;7.772;2022-09-02T14:36:36;97394.00;;;28.30
19666;BMP180;9980;51.020;7.772;2022-09-02T14:39:14;97392.00;;;28.40
19666;BMP180;9980;51.020;7.772;2022-09-02T14:41:54;97394.00;;;28.40
19666;BMP180;9980;51.020;7.772;2022-09-02T14:47:02;97379.00;;;28.50
19666;BMP180;9980;51.020;7.772;2022-09-02T14:49:36;97384.00;;;28.50
19666;BMP180;9980;51.020;7.772;2022-09-02T14:52:26;97374.00;;;28.60
19666;BMP180;9980;51.020;7.772;2022-09-02T14:54:56;97387.00;;;28.60
19666;BMP180;9980;51.020;7.772;2022-09-02T14:57:35;97371.00;;;28.60
19666;BMP180;9980;51.020;7.772;2022-09-02T15:00:09;97381.00;;;28.60
19666;BMP180;9980;51.020;7.772;2022-09-02T15:02:40;97376.00;;;28.70
19666;BMP180;9980;51.020;7.772;2022-09-02T15:05:11;97380.00;;;28.70
19666;BMP180;9980;51.020;7.772;2022-09-02T15:07:40;97376.00;;;28.70
19666;BMP180;9980;51.020;7.772;2022-09-02T15:10:08;97387.00;;;28.60
19666;BMP180;9980;51.020;7.772;2022-09-02T15:12:53;97376.00;;;28.60
19666;BMP180;9980;51.020;7.772;2022-09-02T15:15:21;97362.00;;;28.60
19666;BMP180;9980;51.020;7.772;2022-09-02T15:17:48;97365.00;;;28.60
19666;BMP180;9980;51.020;7.772;2022-09-02T15:20:15;97370.00;;;28.60
19666;BMP180;9980;51.020;7.772;2022-09-02T15:22:43;97367.00;;;28.60
19666;BMP180;9980;51.020;7.772;2022-09-02T15:25:10;97370.00;;;28.50
19666;BMP180;9980;51.020;7.772;2022-09-02T15:27:37;97362.00;;;28.50
19666;BMP180;9980;51.020;7.772;2022-09-02T15:30:06;97355.00;;;28.50
19666;BMP180;9980;51.020;7.772;2022-09-02T15:32:36;97363.00;;;28.50
19666;BMP180;9980;51.020;7.772;2022-09-02T15:35:04;97364.00;;;28.60
19666;BMP180;9980;51.020;7.772;2022-09-02T15:37:32;97355.00;;;28.60
19666;BMP180;9980;51.020;7.772;2022-09-02T15:40:07;97338.00;;;28.50
19666;BMP180;9980;51.020;7.772;2022-09-02T15:42:38;97333.00;;;28.50
19666;BMP180;9980;51.020;7.772;2022-09-02T15:45:06;97341.00;;;28.50
19666;BMP180;9980;51.020;7.772;2022-09-02T15:47:37;97350.00;;;28.50
19666;BMP180;9980;51.020;7.772;2022-09-02T15:50:05;97350.00;;;28.50
19666;BMP180;9980;51.020;7.772;2022-09-02T15:52:34;97341.00;;;28.40
19666;BMP180;9980;51.020;7.772;2022-09-02T15:55:01;97357.00;;;28.40
19666;BMP180;9980;51.020;7.772;2022-09-02T15:57:28;97349.00;;;28.40
19666;BMP180;9980;51.020;7.772;2022-09-02T15:59:56;97337.00;;;28.30
19666;BMP180;9980;51.020;7.772;2022-09-02T16:02:23;97338.00;;;28.30
19666;BMP180;9980;51.020;7.772;2022-09-02T16:04:50;97338.00;;;28.20
19666;BMP180;9980;51.020;7.772;2022-09-02T16:07:17;97336.00;;;28.20
19666;BMP180;9980;51.020;7.772;2022-09-02T16:09:44;97330.00;;;28.20
19666;BMP180;9980;51.020;7.772;2022-09-02T16:12:11;97329.00;;;28.10
19666;BMP180;9980;51.020;7.772;2022-09-02T16:14:39;97335.00;;;28.10